sensor_id;sensor_type;location;lat;lon;timestamp;pressure;altitude;pressure_sealevel;temperature;humidity
56831;BME280;42713;42.676;23.352;2024-01-06T00:00:20;94600.88;;;6.32;81.00
56831;BME280;42713;42.676;23.352;2024-01-06T00:02:48;94609.16;;;6.22;81.89
56831;BME280;42713;42.676;23.352;2024-01-06T00:05:14;94611.94;;;6.09;83.17
56831;BME280;42713;42.676;23.352;2024-01-06T00:07:39;94594.84;;;5.95;83.89
56831;BME280;42713;42.676;23.352;2024-01-06T00:10:06;94595.47;;;5.90;84.01
56831;BME280;42713;42.676;23.352;2024-01-06T00:12:31;94585.66;;;5.92;84.63
56831;BME280;42713;42.676;23.352;2024-01-06T00:14:57;94571.03;;;5.98;84.59
56831;BME280;42713;42.676;23.352;2024-01-06T00:17:22;94586.13;;;6.07;84.37
56831;BME280;42713;42.676;23.352;2024-01-06T00:19:48;94593.09;;;6.14;82.94
56831;BME280;42713;42.676;23.352;2024-01-06T00:22:17;94602.25;;;6.16;83.11
56831;BME280;42713;42.676;23.352;2024-01-06T00:24:43;94615.75;;;6.25;82.70
56831;BME280;42713;42.676;23.352;2024-01-06T00:27:09;94606.72;;;6.28;83.65
56831;BME280;42713;42.676;23.352;2024-01-06T00:29:34;94605.72;;;6.29;83.39
56831;BME280;42713;42.676;23.352;2024-01-06T00:32:00;94588.88;;;6.31;82.66
56831;BME280;42713;42.676;23.352;2024-01-06T00:34:26;94592.66;;;6.35;83.17
56831;BME280;42713;42.676;23.352;2024-01-06T00:36:51;94614.38;;;6.41;83.97
56831;BME280;42713;42.676;23.352;2024-01-06T00:39:17;94613.59;;;6.41;82.42
56831;BME280;42713;42.676;23.352;2024-01-06T00:41:43;94603.47;;;6.32;82.66
56831;BME280;42713;42.676;23.352;2024-01-06T00:44:09;94608.44;;;6.34;82.57
56831;BME280;42713;42.676;23.352;2024-01-06T00:46:34;94619.97;;;6.26;82.73
56831;BME280;42713;42.676;23.352;2024-01-06T00:49:00;94613.59;;;6.22;83.18
56831;BME280;42713;42.676;23.352;2024-01-06T00:51:25;94588.47;;;6.16;82.64
56831;BME280;42713;42.676;23.352;2024-01-06T00:53:51;94584.47;;;6.13;82.96
56831;BME280;42713;42.676;23.352;2024-01-06T00:56:16;94596.81;;;6.18;82.56
56831;BME280;42713;42.676;23.352;2024-01-06T00:58:41;94593.09;;;6.14;83.13
56831;BME280;42713;42.676;23.352;2024-01-06T01:01:07;94597.28;;;6.15;83.72
56831;BME280;42713;42.676;23.352;2024-01-06T01:03:33;94592.06;;;6.15;83.98
56831;BME280;42713;42.676;23.352;2024-01-06T01:05:58;94592.84;;;6.15;82.77
56831;BME280;42713;42.676;23.352;2024-01-06T01:08:23;94601.25;;;6.17;83.41
56831;BME280;42713;42.676;23.352;2024-01-06T01:10:49;94592.84;;;6.15;82.67
56831;BME280;42713;42.676;23.352;2024-01-06T01:13:14;94597.03;;;6.16;82.43
56831;BME280;42713;42.676;23.352;2024-01-06T01:15:40;94594.22;;;6.18;82.04
56831;BME280;42713;42.676;23.352;2024-01-06T01:18:05;94576.66;;;6.13;82.03
56831;BME280;42713;42.676;23.352;2024-01-06T01:20:31;94577.59;;;6.19;81.75
56831;BME280;42713;42.676;23.352;2024-01-06T01:22:56;94576.47;;;6.15;82.05
56831;BME280;42713;42.676;23.352;2024-01-06T01:25:21;94581.44;;;6.16;81.88
56831;BME280;42713;42.676;23.352;2024-01-06T01:27:47;94586.41;;;6.18;82.04
56831;BME280;42713;42.676;23.352;2024-01-06T01:30:12;94579.66;;;6.17;82.70
56831;BME280;42713;42.676;23.352;2024-01-06T01:32:39;94581.78;;;6.20;82.54
56831;BME280;42713;42.676;23.352;2024-01-06T01:35:05;94569.81;;;6.19;82.07
56831;BME280;42713;42.676;23.352;2024-01-06T01:37:30;94573.56;;;6.23;82.58
56831;BME280;42713;42.676;23.352;2024-01-06T01:39:56;94566.00;;;6.21;81.81
56831;BME280;42713;42.676;23.352;2024-01-06T01:42:22;94567.13;;;6.26;82.12
56831;BME280;42713;42.676;23.352;2024-01-06T01:44:47;94567.13;;;6.26;81.44
56831;BME280;42713;42.676;23.352;2024-01-06T01:47:13;94550.16;;;6.23;81.88
56831;BME280;42713;42.676;23.352;2024-01-06T01:49:45;94555.13;;;6.25;81.83
56831;BME280;42713;42.676;23.352;2024-01-06T01:52:12;94548.81;;;6.20;81.70
56831;BME280;42713;42.676;23.352;2024-01-06T01:54:38;94553.78;;;6.22;81.79
56831;BME280;42713;42.676;23.352;2024-01-06T01:57:04;94546.41;;;6.19;82.15
56831;BME280;42713;42.676;23.352;2024-01-06T01:59:30;94545.97;;;6.22;82.44
56831;BME280;42713;42.676;23.352;2024-01-06T02:01:55;94542.88;;;6.13;82.85
56831;BME280;42713;42.676;23.352;2024-01-06T02:04:21;94553.50;;;6.12;83.09
56831;BME280;42713;42.676;23.352;2024-01-06T02:06:46;94544.91;;;6.11;82.92
56831;BME280;42713;42.676;23.352;2024-01-06T02:09:12;94543.69;;;6.14;82.94
56831;BME280;42713;42.676;23.352;2024-01-06T02:11:40;94537.00;;;6.18;82.18
56831;BME280;42713;42.676;23.352;2024-01-06T02:14:05;94527.00;;;6.21;82.25
56831;BME280;42713;42.676;23.352;2024-01-06T02:16:32;94526.75;;;6.23;81.47
56831;BME280;42713;42.676;23.352;2024-01-06T02:18:57;94521.31;;;6.25;81.00
56831;BME280;42713;42.676;23.352;2024-01-06T02:21:23;94497.34;;;6.22;81.29
56831;BME280;42713;42.676;23.352;2024-01-06T02:23:49;94504.78;;;6.19;81.02
56831;BME280;42713;42.676;23.352;2024-01-06T02:26:15;94524.59;;;6.20;80.56
56831;BME280;42713;42.676;23.352;2024-01-06T02:28:41;94516.00;;;6.19;80.41
56831;BME280;42713;42.676;23.352;2024-01-06T02:31:06;94499.03;;;6.17;80.05
56831;BME280;42713;42.676;23.352;2024-01-06T02:33:32;94500.59;;;6.18;79.33
56831;BME280;42713;42.676;23.352;2024-01-06T02:35:57;94500.41;;;6.19;79.06
56831;BME280;42713;42.676;23.352;2024-01-06T02:38:23;94493.38;;;6.20;79.61
56831;BME280;42713;42.676;23.352;2024-01-06T02:40:48;94492.78;;;6.18;79.46
56831;BME280;42713;42.676;23.352;2024-01-06T02:43:13;94496.22;;;6.18;80.18
56831;BME280;42713;42.676;23.352;2024-01-06T02:45:39;94483.88;;;6.14;80.06
56831;BME280;42713;42.676;23.352;2024-01-06T02:48:04;94474.81;;;6.16;79.64
56831;BME280;42713;42.676;23.352;2024-01-06T02:50:30;94483.88;;;6.14;79.80
56831;BME280;42713;42.676;23.352;2024-01-06T02:52:55;94499.13;;;6.10;79.97
56831;BME280;42713;42.676;23.352;2024-01-06T02:55:21;94489.50;;;6.11;81.21
56831;BME280;42713;42.676;23.352;2024-01-06T02:57:46;94480.91;;;6.10;79.91
56831;BME280;42713;42.676;23.352;2024-01-06T03:00:12;94472.31;;;6.10;79.91
56831;BME280;42713;42.676;23.352;2024-01-06T03:02:38;94464.06;;;6.13;79.00
56831;BME280;42713;42.676;23.352;2024-01-06T03:05:07;94458.09;;;6.12;78.78
56831;BME280;42713;42.676;23.352;2024-01-06T03:07:33;94468.94;;;6.09;77.59
56831;BME280;42713;42.676;23.352;2024-01-06T03:09:58;94454.19;;;6.03;77.42
56831;BME280;42713;42.676;23.352;2024-01-06T03:12:24;94460.31;;;6.08;76.54
56831;BME280;42713;42.676;23.352;2024-01-06T03:14:49;94473.13;;;6.10;76.93
56831;BME280;42713;42.676;23.352;2024-01-06T03:17:15;94464.50;;;6.10;77.87
56831;BME280;42713;42.676;23.352;2024-01-06T03:19:40;94464.16;;;6.06;77.00
56831;BME280;42713;42.676;23.352;2024-01-06T03:22:05;94463.03;;;6.02;76.52
56831;BME280;42713;42.676;23.352;2024-01-06T03:24:31;94451.59;;;6.03;76.76
56831;BME280;42713;42.676;23.352;2024-01-06T03:26:57;94450.16;;;6.07;76.38
56831;BME280;42713;42.676;23.352;2024-01-06T03:29:22;94449.56;;;6.05;75.64
56831;BME280;42713;42.676;23.352;2024-01-06T03:31:47;94463.72;;;6.09;75.62
56831;BME280;42713;42.676;23.352;2024-01-06T03:34:13;94468.69;;;6.11;75.59
56831;BME280;42713;42.676;23.352;2024-01-06T03:36:39;94456.13;;;6.07;75.37
56831;BME280;42713;42.676;23.352;2024-01-06T03:39:05;94458.09;;;6.12;75.38
56831;BME280;42713;42.676;23.352;2024-01-06T03:41:31;94456.63;;;6.16;74.64
56831;BME280;42713;42.676;23.352;2024-01-06T03:43:56;94455.03;;;6.15;74.92
56831;BME280;42713;42.676;23.352;2024-01-06T03:46:22;94460.03;;;6.17;75.06
56831;BME280;42713;42.676;23.352;2024-01-06T03:48:48;94443.03;;;6.14;75.11
56831;BME280;42713;42.676;23.352;2024-01-06T03:51:14;94447.22;;;6.15;74.46
56831;BME280;42713;42.676;23.352;2024-01-06T03:53:39;94453.25;;;6.16;74.20
56831;BME280;42713;42.676;23.352;2024-01-06T03:56:06;94447.03;;;6.17;74.63
56831;BME280;42713;42.676;23.352;2024-01-06T03:58:32;94438.66;;;6.15;73.71
56831;BME280;42713;42.676;23.352;2024-01-06T04:00:58;94452.09;;;6.12;74.83
56831;BME280;42713;42.676;23.352;2024-01-06T04:03:23;94467.91;;;6.10;74.64
56831;BME280;42713;42.676;23.352;2024-01-06T04:05:49;94450.03;;;6.02;74.10
56831;BME280;42713;42.676;23.352;2024-01-06T04:08:14;94455.78;;;6.04;74.75
56831;BME280;42713;42.676;23.352;2024-01-06T04:10:40;94454.66;;;6.00;74.59
56831;BME280;42713;42.676;23.352;2024-01-06T04:13:07;94450.03;;;6.02;74.45
56831;BME280;42713;42.676;23.352;2024-01-06T04:15:33;94458.03;;;6.00;74.95
56831;BME280;42713;42.676;23.352;2024-01-06T04:18:01;94454.41;;;6.01;74.90
56831;BME280;42713;42.676;23.352;2024-01-06T04:20:28;94445.22;;;5.99;74.48
56831;BME280;42713;42.676;23.352;2024-01-06T04:22:53;94447.81;;;5.99;75.54
56831;BME280;42713;42.676;23.352;2024-01-06T04:25:18;94448.06;;;5.97;75.33
56831;BME280;42713;42.676;23.352;2024-01-06T04:27:44;94450.84;;;5.96;75.02
56831;BME280;42713;42.676;23.352;2024-01-06T04:30:12;94446.66;;;5.95;75.18
56831;BME280;42713;42.676;23.352;2024-01-06T04:32:38;94454.69;;;5.93;75.61
56831;BME280;42713;42.676;23.352;2024-01-06T04:35:04;94457.94;;;5.88;75.27
56831;BME280;42713;42.676;23.352;2024-01-06T04:37:30;94466.16;;;5.85;75.63
56831;BME280;42713;42.676;23.352;2024-01-06T04:39:55;94474.44;;;5.82;75.05
56831;BME280;42713;42.676;23.352;2024-01-06T04:42:21;94461.03;;;5.79;75.12
56831;BME280;42713;42.676;23.352;2024-01-06T04:44:48;94465.47;;;5.78;74.54
56831;BME280;42713;42.676;23.352;2024-01-06T04:47:13;94466.03;;;5.80;74.88
56831;BME280;42713;42.676;23.352;2024-01-06T04:49:38;94466.91;;;5.74;73.94
56831;BME280;42713;42.676;23.352;2024-01-06T04:52:04;94458.09;;;5.75;74.25
56831;BME280;42713;42.676;23.352;2024-01-06T04:54:30;94454.94;;;5.73;74.34
56831;BME280;42713;42.676;23.352;2024-01-06T04:56:57;94471.97;;;5.69;74.36
56831;BME280;42713;42.676;23.352;2024-01-06T04:59:23;94465.41;;;5.66;73.22
56831;BME280;42713;42.676;23.352;2024-01-06T05:01:48;94464.75;;;5.71;73.30
56831;BME280;42713;42.676;23.352;2024-01-06T05:04:21;94471.75;;;5.70;74.17
56831;BME280;42713;42.676;23.352;2024-01-06T05:06:47;94463.00;;;5.65;73.23
56831;BME280;42713;42.676;23.352;2024-01-06T05:09:12;94447.16;;;5.73;72.46
56831;BME280;42713;42.676;23.352;2024-01-06T05:11:38;94441.38;;;5.71;72.56
56831;BME280;42713;42.676;23.352;2024-01-06T05:14:03;94455.72;;;5.73;72.68
56831;BME280;42713;42.676;23.352;2024-01-06T05:16:35;94435.59;;;5.69;73.62
56831;BME280;42713;42.676;23.352;2024-01-06T05:19:00;94460.34;;;5.71;72.52
56831;BME280;42713;42.676;23.352;2024-01-06T05:21:25;94460.56;;;5.70;73.59
56831;BME280;42713;42.676;23.352;2024-01-06T05:23:51;94441.38;;;5.71;73.50
56831;BME280;42713;42.676;23.352;2024-01-06T05:26:16;94445.56;;;5.72;72.29
56831;BME280;42713;42.676;23.352;2024-01-06T05:28:42;94439.56;;;5.71;72.45
56831;BME280;42713;42.676;23.352;2024-01-06T05:31:08;94430.97;;;5.71;72.74
56831;BME280;42713;42.676;23.352;2024-01-06T05:33:33;94426.22;;;5.68;72.52
56831;BME280;42713;42.676;23.352;2024-01-06T05:35:59;94428.97;;;5.73;72.75
56831;BME280;42713;42.676;23.352;2024-01-06T05:38:24;94421.72;;;5.75;73.43
56831;BME280;42713;42.676;23.352;2024-01-06T05:40:50;94425.56;;;5.72;72.54
56831;BME280;42713;42.676;23.352;2024-01-06T05:43:15;94422.72;;;5.74;72.36
56831;BME280;42713;42.676;23.352;2024-01-06T05:45:41;94439.91;;;5.75;72.32
56831;BME280;42713;42.676;23.352;2024-01-06T05:48:09;94429.97;;;5.72;71.96
56831;BME280;42713;42.676;23.352;2024-01-06T05:50:35;94422.19;;;5.72;71.74
56831;BME280;42713;42.676;23.352;2024-01-06T05:53:00;94436.94;;;5.71;71.20
56831;BME280;42713;42.676;23.352;2024-01-06T05:55:26;94428.38;;;5.71;71.24
56831;BME280;42713;42.676;23.352;2024-01-06T05:57:51;94421.38;;;5.71;72.04
56831;BME280;42713;42.676;23.352;2024-01-06T06:00:17;94430.41;;;5.69;71.76
56831;BME280;42713;42.676;23.352;2024-01-06T06:02:42;94418.75;;;5.71;70.84
56831;BME280;42713;42.676;23.352;2024-01-06T06:05:08;94431.41;;;5.68;71.00
56831;BME280;42713;42.676;23.352;2024-01-06T06:07:34;94431.19;;;5.69;71.66
56831;BME280;42713;42.676;23.352;2024-01-06T06:10:08;94428.81;;;5.68;71.12
56831;BME280;42713;42.676;23.352;2024-01-06T06:12:34;94416.81;;;5.67;71.19
56831;BME280;42713;42.676;23.352;2024-01-06T06:15:00;94415.81;;;5.68;71.62
56831;BME280;42713;42.676;23.352;2024-01-06T06:17:26;94417.47;;;5.62;71.74
56831;BME280;42713;42.676;23.352;2024-01-06T06:19:52;94410.03;;;5.66;71.48
56831;BME280;42713;42.676;23.352;2024-01-06T06:22:17;94426.09;;;5.63;71.32
56831;BME280;42713;42.676;23.352;2024-01-06T06:24:43;94415.09;;;5.60;71.50
56831;BME280;42713;42.676;23.352;2024-01-06T06:27:08;94406.72;;;5.58;71.20
56831;BME280;42713;42.676;23.352;2024-01-06T06:29:34;94426.44;;;5.66;71.30
56831;BME280;42713;42.676;23.352;2024-01-06T06:32:00;94428.22;;;5.66;71.34
56831;BME280;42713;42.676;23.352;2024-01-06T06:34:25;94428.22;;;5.66;70.90
56831;BME280;42713;42.676;23.352;2024-01-06T06:36:50;94420.88;;;5.63;71.04
56831;BME280;42713;42.676;23.352;2024-01-06T06:39:16;94425.50;;;5.60;71.63
56831;BME280;42713;42.676;23.352;2024-01-06T06:41:41;94434.88;;;5.61;70.78
56831;BME280;42713;42.676;23.352;2024-01-06T06:44:07;94414.44;;;5.65;70.77
56831;BME280;42713;42.676;23.352;2024-01-06T06:46:32;94428.69;;;5.63;71.49
56831;BME280;42713;42.676;23.352;2024-01-06T06:48:58;94434.06;;;5.61;71.61
56831;BME280;42713;42.676;23.352;2024-01-06T06:51:23;94432.06;;;5.63;71.14
56831;BME280;42713;42.676;23.352;2024-01-06T06:53:52;94432.41;;;5.67;72.08
56831;BME280;42713;42.676;23.352;2024-01-06T06:56:17;94418.41;;;5.68;71.60
56831;BME280;42713;42.676;23.352;2024-01-06T06:58:43;94429.75;;;5.73;69.98
56831;BME280;42713;42.676;23.352;2024-01-06T07:01:08;94429.97;;;5.72;70.19
56831;BME280;42713;42.676;23.352;2024-01-06T07:03:34;94417.19;;;5.70;70.07
56831;BME280;42713;42.676;23.352;2024-01-06T07:05:59;94426.78;;;5.70;70.32
56831;BME280;42713;42.676;23.352;2024-01-06T07:08:25;94421.50;;;5.76;70.49
56831;BME280;42713;42.676;23.352;2024-01-06T07:10:50;94412.91;;;5.76;71.65
56831;BME280;42713;42.676;23.352;2024-01-06T07:13:15;94428.84;;;5.80;71.72
56831;BME280;42713;42.676;23.352;2024-01-06T07:15:41;94426.06;;;5.81;71.50
56831;BME280;42713;42.676;23.352;2024-01-06T07:18:09;94420.06;;;5.81;71.24
56831;BME280;42713;42.676;23.352;2024-01-06T07:20:34;94422.53;;;5.75;71.38
56831;BME280;42713;42.676;23.352;2024-01-06T07:23:00;94408.88;;;5.80;71.08
56831;BME280;42713;42.676;23.352;2024-01-06T07:25:25;94423.81;;;5.85;71.76
56831;BME280;42713;42.676;23.352;2024-01-06T07:27:51;94416.34;;;5.88;70.54
56831;BME280;42713;42.676;23.352;2024-01-06T07:30:16;94429.59;;;5.87;71.28
56831;BME280;42713;42.676;23.352;2024-01-06T07:32:42;94412.94;;;5.88;70.58
56831;BME280;42713;42.676;23.352;2024-01-06T07:35:07;94421.91;;;5.92;70.28
56831;BME280;42713;42.676;23.352;2024-01-06T07:37:33;94396.25;;;5.96;70.53
56831;BME280;42713;42.676;23.352;2024-01-06T07:39:58;94408.63;;;6.00;70.86
56831;BME280;42713;42.676;23.352;2024-01-06T07:42:24;94426.97;;;6.05;70.81
56831;BME280;42713;42.676;23.352;2024-01-06T07:44:49;94415.56;;;6.06;70.73
56831;BME280;42713;42.676;23.352;2024-01-06T07:47:15;94422.31;;;6.07;71.15
56831;BME280;42713;42.676;23.352;2024-01-06T07:49:40;94409.31;;;6.07;70.53
56831;BME280;42713;42.676;23.352;2024-01-06T07:52:06;94433.44;;;6.15;69.99
56831;BME280;42713;42.676;23.352;2024-01-06T07:54:31;94413.91;;;6.24;70.58
56831;BME280;42713;42.676;23.352;2024-01-06T07:56:56;94418.44;;;6.29;70.30
56831;BME280;42713;42.676;23.352;2024-01-06T07:59:24;94413.25;;;6.29;70.63
56831;BME280;42713;42.676;23.352;2024-01-06T08:01:50;94402.84;;;6.29;70.21
56831;BME280;42713;42.676;23.352;2024-01-06T08:04:15;94436.00;;;6.33;70.85
56831;BME280;42713;42.676;23.352;2024-01-06T08:06:41;94395.97;;;6.34;70.00
56831;BME280;42713;42.676;23.352;2024-01-06T08:14:09;94403.97;;;6.33;69.46
56831;BME280;42713;42.676;23.352;2024-01-06T08:16:36;94425.81;;;6.32;69.97
56831;BME280;42713;42.676;23.352;2024-01-06T08:19:01;94411.47;;;6.41;71.10
56831;BME280;42713;42.676;23.352;2024-01-06T08:21:27;94408.06;;;6.41;71.16
56831;BME280;42713;42.676;23.352;2024-01-06T08:23:53;94412.34;;;6.47;70.88
56831;BME280;42713;42.676;23.352;2024-01-06T08:26:28;94406.94;;;6.36;70.91
56831;BME280;42713;42.676;23.352;2024-01-06T08:28:54;94424.47;;;6.41;72.63
56831;BME280;42713;42.676;23.352;2024-01-06T08:31:19;94396.22;;;6.45;71.61
56831;BME280;42713;42.676;23.352;2024-01-06T08:33:47;94416.34;;;6.49;71.45
56831;BME280;42713;42.676;23.352;2024-01-06T08:36:12;94416.47;;;6.54;71.86
56831;BME280;42713;42.676;23.352;2024-01-06T08:38:38;94390.00;;;6.58;71.33
56831;BME280;42713;42.676;23.352;2024-01-06T08:41:04;94421.00;;;6.71;70.95
56831;BME280;42713;42.676;23.352;2024-01-06T08:43:30;94415.16;;;6.76;71.67
56831;BME280;42713;42.676;23.352;2024-01-06T08:45:55;94401.31;;;6.87;70.85
56831;BME280;42713;42.676;23.352;2024-01-06T08:48:21;94405.72;;;6.98;71.66
56831;BME280;42713;42.676;23.352;2024-01-06T08:50:47;94402.44;;;7.03;70.20
56831;BME280;42713;42.676;23.352;2024-01-06T08:53:13;94417.88;;;7.05;70.29
56831;BME280;42713;42.676;23.352;2024-01-06T08:55:38;94395.78;;;7.07;69.84
56831;BME280;42713;42.676;23.352;2024-01-06T08:58:04;94413.09;;;7.13;69.72
56831;BME280;42713;42.676;23.352;2024-01-06T09:00:30;94413.22;;;7.19;69.89
56831;BME280;42713;42.676;23.352;2024-01-06T09:02:56;94391.22;;;7.26;70.13
56831;BME280;42713;42.676;23.352;2024-01-06T09:05:21;94389.63;;;7.25;70.08
56831;BME280;42713;42.676;23.352;2024-01-06T09:07:47;94384.78;;;7.29;69.64
56831;BME280;42713;42.676;23.352;2024-01-06T09:10:16;94384.84;;;7.34;69.14
56831;BME280;42713;42.676;23.352;2024-01-06T09:12:43;94363.56;;;7.37;69.48
56831;BME280;42713;42.676;23.352;2024-01-06T09:15:09;94390.53;;;7.43;69.51
56831;BME280;42713;42.676;23.352;2024-01-06T09:17:35;94375.22;;;7.46;69.59
56831;BME280;42713;42.676;23.352;2024-01-06T09:20:01;94349.47;;;7.50;68.85
56831;BME280;42713;42.676;23.352;2024-01-06T09:22:28;94369.06;;;7.53;69.17
56831;BME280;42713;42.676;23.352;2024-01-06T09:24:53;94363.84;;;7.53;69.02
56831;BME280;42713;42.676;23.352;2024-01-06T09:27:19;94364.88;;;7.52;68.83
56831;BME280;42713;42.676;23.352;2024-01-06T09:29:45;94349.81;;;7.54;69.01
56831;BME280;42713;42.676;23.352;2024-01-06T09:32:11;94346.63;;;7.52;68.91
56831;BME280;42713;42.676;23.352;2024-01-06T09:34:38;94338.34;;;7.55;69.34
56831;BME280;42713;42.676;23.352;2024-01-06T09:37:05;94363.06;;;7.52;69.46
56831;BME280;42713;42.676;23.352;2024-01-06T09:39:33;94287.97;;;7.49;69.39
56831;BME280;42713;42.676;23.352;2024-01-06T09:41:59;94362.06;;;7.53;70.22
56831;BME280;42713;42.676;23.352;2024-01-06T09:44:25;94308.03;;;7.48;69.25
56831;BME280;42713;42.676;23.352;2024-01-06T09:46:50;94335.88;;;7.48;69.76
56831;BME280;42713;42.676;23.352;2024-01-06T09:49:22;94328.88;;;7.48;69.65
56831;BME280;42713;42.676;23.352;2024-01-06T09:51:49;94332.50;;;7.47;70.10
56831;BME280;42713;42.676;23.352;2024-01-06T09:54:22;94322.84;;;7.48;70.56
56831;BME280;42713;42.676;23.352;2024-01-06T09:56:52;94335.75;;;7.55;69.76
56831;BME280;42713;42.676;23.352;2024-01-06T09:59:18;94298.88;;;7.63;69.52
56831;BME280;42713;42.676;23.352;2024-01-06T10:01:47;94293.91;;;7.61;69.25
56831;BME280;42713;42.676;23.352;2024-01-06T10:04:13;94331.09;;;7.57;69.38
56831;BME280;42713;42.676;23.352;2024-01-06T10:06:40;94291.59;;;7.48;68.70
56831;BME280;42713;42.676;23.352;2024-01-06T10:09:06;94303.34;;;7.51;69.54
56831;BME280;42713;42.676;23.352;2024-01-06T10:11:31;94291.34;;;7.50;68.57
56831;BME280;42713;42.676;23.352;2024-01-06T10:13:57;94309.13;;;7.53;68.04
56831;BME280;42713;42.676;23.352;2024-01-06T10:16:41;94280.00;;;7.56;68.66
56831;BME280;42713;42.676;23.352;2024-01-06T10:19:07;94272.56;;;7.64;68.90
56831;BME280;42713;42.676;23.352;2024-01-06T10:21:33;94296.13;;;7.70;68.92
56831;BME280;42713;42.676;23.352;2024-01-06T10:23:59;94247.38;;;7.70;66.61
56831;BME280;42713;42.676;23.352;2024-01-06T10:26:25;94277.34;;;7.68;67.81
56831;BME280;42713;42.676;23.352;2024-01-06T10:28:50;94254.91;;;7.67;66.90
56831;BME280;42713;42.676;23.352;2024-01-06T10:31:17;94256.34;;;7.74;66.97
56831;BME280;42713;42.676;23.352;2024-01-06T10:33:46;94270.97;;;7.75;66.23
56831;BME280;42713;42.676;23.352;2024-01-06T10:36:11;94277.50;;;7.78;67.12
56831;BME280;42713;42.676;23.352;2024-01-06T10:38:37;94223.88;;;7.82;66.48
56831;BME280;42713;42.676;23.352;2024-01-06T10:41:03;94258.66;;;7.88;66.32
56831;BME280;42713;42.676;23.352;2024-01-06T10:43:33;94252.47;;;7.94;66.12
56831;BME280;42713;42.676;23.352;2024-01-06T10:46:05;94252.06;;;8.02;65.56
56831;BME280;42713;42.676;23.352;2024-01-06T10:48:36;94244.88;;;8.09;65.85
56831;BME280;42713;42.676;23.352;2024-01-06T10:51:06;94231.47;;;8.18;66.18
56831;BME280;42713;42.676;23.352;2024-01-06T10:53:33;94225.28;;;8.24;65.29
56831;BME280;42713;42.676;23.352;2024-01-06T10:56:05;94222.19;;;8.27;64.72
56831;BME280;42713;42.676;23.352;2024-01-06T10:58:46;94235.84;;;8.34;64.36
56831;BME280;42713;42.676;23.352;2024-01-06T11:01:16;94208.31;;;8.44;64.27
56831;BME280;42713;42.676;23.352;2024-01-06T11:03:45;94229.75;;;8.46;64.24
56831;BME280;42713;42.676;23.352;2024-01-06T11:06:11;94213.63;;;8.49;63.33
56831;BME280;42713;42.676;23.352;2024-01-06T11:08:48;94200.88;;;8.52;63.76
56831;BME280;42713;42.676;23.352;2024-01-06T11:11:18;94216.88;;;8.56;64.11
56831;BME280;42713;42.676;23.352;2024-01-06T11:13:45;94179.34;;;8.62;64.37
56831;BME280;42713;42.676;23.352;2024-01-06T11:16:33;94212.31;;;8.68;65.00
56831;BME280;42713;42.676;23.352;2024-01-06T11:18:59;94205.56;;;8.72;64.07
56831;BME280;42713;42.676;23.352;2024-01-06T11:21:24;94170.34;;;8.75;63.81
56831;BME280;42713;42.676;23.352;2024-01-06T11:26:49;94183.09;;;8.94;63.98
56831;BME280;42713;42.676;23.352;2024-01-06T11:29:15;94173.78;;;9.03;63.28
56831;BME280;42713;42.676;23.352;2024-01-06T11:31:41;94178.34;;;9.13;63.60
56831;BME280;42713;42.676;23.352;2024-01-06T11:34:14;94160.19;;;9.28;62.35
56831;BME280;42713;42.676;23.352;2024-01-06T11:36:42;94165.50;;;9.39;62.32
56831;BME280;42713;42.676;23.352;2024-01-06T11:39:34;94164.56;;;9.50;62.04
56831;BME280;42713;42.676;23.352;2024-01-06T11:42:00;94135.81;;;9.50;60.63
56831;BME280;42713;42.676;23.352;2024-01-06T11:44:28;94155.94;;;9.49;60.99
56831;BME280;42713;42.676;23.352;2024-01-06T11:46:56;94118.34;;;9.56;60.77
56831;BME280;42713;42.676;23.352;2024-01-06T11:49:22;94126.19;;;9.56;60.83
56831;BME280;42713;42.676;23.352;2024-01-06T11:51:51;94122.59;;;9.67;60.76
56831;BME280;42713;42.676;23.352;2024-01-06T11:54:18;94115.03;;;9.71;60.43
56831;BME280;42713;42.676;23.352;2024-01-06T11:56:44;94111.63;;;9.70;60.78
56831;BME280;42713;42.676;23.352;2024-01-06T11:59:09;94100.41;;;9.75;60.81
56831;BME280;42713;42.676;23.352;2024-01-06T12:01:38;94099.44;;;9.86;61.83
56831;BME280;42713;42.676;23.352;2024-01-06T12:04:05;94106.28;;;9.92;61.68
56831;BME280;42713;42.676;23.352;2024-01-06T12:06:31;94089.03;;;9.96;61.08
56831;BME280;42713;42.676;23.352;2024-01-06T12:09:08;94089.63;;;10.04;61.17
56831;BME280;42713;42.676;23.352;2024-01-06T12:11:33;94090.44;;;10.15;60.23
56831;BME280;42713;42.676;23.352;2024-01-06T12:13:59;94079.97;;;10.20;60.30
56831;BME280;42713;42.676;23.352;2024-01-06T12:16:25;94057.50;;;10.19;59.80
56831;BME280;42713;42.676;23.352;2024-01-06T12:18:54;94059.56;;;10.17;59.62
56831;BME280;42713;42.676;23.352;2024-01-06T12:21:25;94048.31;;;10.11;60.41
56831;BME280;42713;42.676;23.352;2024-01-06T12:23:50;94049.59;;;10.08;60.02
56831;BME280;42713;42.676;23.352;2024-01-06T12:26:19;94078.59;;;10.02;60.09
56831;BME280;42713;42.676;23.352;2024-01-06T12:28:45;94096.66;;;9.98;59.99
56831;BME280;42713;42.676;23.352;2024-01-06T12:31:11;94096.59;;;9.93;59.81
56831;BME280;42713;42.676;23.352;2024-01-06T12:33:39;94089.25;;;9.85;59.90
56831;BME280;42713;42.676;23.352;2024-01-06T12:36:09;94083.72;;;9.81;59.97
56831;BME280;42713;42.676;23.352;2024-01-06T12:38:36;94074.78;;;9.77;60.70
56831;BME280;42713;42.676;23.352;2024-01-06T12:41:06;94070.09;;;9.74;60.85
56831;BME280;42713;42.676;23.352;2024-01-06T12:43:31;94075.31;;;9.74;60.68
56831;BME280;42713;42.676;23.352;2024-01-06T12:45:57;94091.03;;;9.79;61.05
56831;BME280;42713;42.676;23.352;2024-01-06T12:48:23;94076.41;;;9.83;61.18
56831;BME280;42713;42.676;23.352;2024-01-06T12:50:49;94067.88;;;9.98;61.20
56831;BME280;42713;42.676;23.352;2024-01-06T12:53:14;94059.31;;;10.18;62.27
56831;BME280;42713;42.676;23.352;2024-01-06T12:55:43;94053.16;;;10.40;60.98
56831;BME280;42713;42.676;23.352;2024-01-06T12:58:09;94053.94;;;10.51;60.65
56831;BME280;42713;42.676;23.352;2024-01-06T13:00:36;94060.78;;;10.57;60.71
56831;BME280;42713;42.676;23.352;2024-01-06T13:03:01;94060.53;;;10.64;60.20